createdAt,value
2023-02-27T00:03:49.177Z,82.80
2023-02-27T00:08:52.169Z,82.80
2023-02-27T00:13:55.178Z,82.80
2023-02-27T00:19:01.526Z,83.10
2023-02-27T00:24:05.443Z,83.00
2023-02-27T00:29:08.426Z,83.30
2023-02-27T00:34:11.570Z,83.20
2023-02-27T00:39:15.705Z,83.30
2023-02-27T00:44:19.134Z,83.30
2023-02-27T00:49:22.108Z,83.50
2023-02-27T00:54:24.917Z,84.00
2023-02-27T00:59:28.003Z,84.40
2023-02-27T01:04:30.948Z,84.40
2023-02-27T01:09:34.120Z,84.40
2023-02-27T01:14:37.385Z,84.70
2023-02-27T01:19:41.394Z,84.40
2023-02-27T01:24:44.360Z,84.40
2023-02-27T01:29:47.180Z,84.40
2023-02-27T01:34:50.478Z,84.30
2023-02-27T01:39:53.240Z,84.20
2023-02-27T01:45:13.070Z,84.30
2023-02-27T01:50:18.034Z,84.50
2023-02-27T01:55:22.703Z,84.40
2023-02-27T02:00:26.611Z,84.40
2023-02-27T02:05:30.578Z,84.50
2023-02-27T02:10:33.982Z,84.70
2023-02-27T02:15:44.702Z,85.00
2023-02-27T02:21:14.795Z,84.60
2023-02-27T02:27:23.355Z,84.30
2023-02-27T02:32:59.847Z,83.90
2023-02-27T02:38:40.214Z,83.30
2023-02-27T02:44:45.923Z,82.90
2023-02-27T02:50:16.546Z,82.50
2023-02-27T02:55:37.199Z,82.00
2023-02-27T03:01:04.486Z,82.20
2023-02-27T03:06:34.812Z,81.70
2023-02-27T03:11:45.056Z,81.40
2023-02-27T03:16:53.610Z,81.60
2023-02-27T03:22:09.010Z,81.80
2023-02-27T03:27:12.602Z,82.20
2023-02-27T03:32:52.613Z,82.00
2023-02-27T03:38:16.610Z,82.10
2023-02-27T03:43:35.987Z,82.10
2023-02-27T03:48:44.656Z,82.10
2023-02-27T03:54:35.272Z,82.10
2023-02-27T03:59:38.844Z,82.20
2023-02-27T04:04:41.916Z,82.40
2023-02-27T04:10:12.554Z,82.60
2023-02-27T04:15:21.562Z,82.60
2023-02-27T04:20:44.559Z,82.60
2023-02-27T04:26:14.003Z,82.80
2023-02-27T04:31:30.555Z,82.90
2023-02-27T04:36:49.162Z,82.80
2023-02-27T04:42:23.934Z,83.00
2023-02-27T04:47:35.192Z,83.10
2023-02-27T04:52:44.879Z,82.90
2023-02-27T04:58:01.915Z,82.70
2023-02-27T05:03:17.131Z,82.50
2023-02-27T05:09:10.009Z,82.40
2023-02-27T05:14:21.888Z,81.70
2023-02-27T05:19:24.871Z,80.90
2023-02-27T05:24:43.507Z,81.20
2023-02-27T05:29:51.467Z,80.90
2023-02-27T05:35:20.918Z,80.90
2023-02-27T05:40:31.301Z,80.80
2023-02-27T05:45:37.776Z,80.40
2023-02-27T05:50:44.063Z,80.60
2023-02-27T05:55:56.683Z,80.40
2023-02-27T06:01:08.107Z,80.50
2023-02-27T06:06:18.261Z,80.80
2023-02-27T06:11:21.392Z,80.70
2023-02-27T06:16:24.404Z,80.90
2023-02-27T06:21:27.387Z,80.00
2023-02-27T06:26:30.348Z,80.60
2023-02-27T06:31:33.350Z,80.60
2023-02-27T06:36:36.381Z,80.50
2023-02-27T06:41:39.323Z,79.80
2023-02-27T06:46:42.428Z,79.40
2023-02-27T06:51:45.564Z,79.50
2023-02-27T06:56:48.531Z,78.90
2023-02-27T07:01:52.022Z,78.70
2023-02-27T07:07:34.352Z,78.20
2023-02-27T07:12:17.779Z,77.30
2023-02-27T07:17:22.549Z,76.60
2023-02-27T07:22:25.416Z,76.20
2023-02-27T07:27:28.184Z,74.10
2023-02-27T07:32:31.194Z,73.60
2023-02-27T07:37:34.175Z,73.60
2023-02-27T07:42:37.226Z,72.90
2023-02-27T07:47:40.054Z,72.30
2023-02-27T07:52:44.443Z,72.90
2023-02-27T07:57:47.446Z,72.20
2023-02-27T08:02:50.630Z,72.60
2023-02-27T08:07:53.697Z,71.30
2023-02-27T08:12:56.913Z,71.20
2023-02-27T08:18:00.041Z,69.90
2023-02-27T08:23:03.084Z,70.60
2023-02-27T08:28:06.060Z,68.80
2023-02-27T08:33:08.987Z,68.80
2023-02-27T08:38:11.909Z,67.10
2023-02-27T08:43:14.693Z,67.40
2023-02-27T08:48:18.619Z,67.00
2023-02-27T08:53:22.999Z,67.00
2023-02-27T08:58:26.136Z,68.30
2023-02-27T09:03:29.244Z,68.40
2023-02-27T09:08:32.688Z,67.20
2023-02-27T09:13:35.667Z,67.50
2023-02-27T09:18:38.641Z,66.40
2023-02-27T09:23:41.948Z,66.90
2023-02-27T09:28:45.084Z,66.80
2023-02-27T09:33:48.090Z,66.00
2023-02-27T09:38:51.126Z,66.30
2023-02-27T09:43:54.049Z,64.50
2023-02-27T09:49:04.922Z,64.50
2023-02-27T09:54:10.492Z,64.70
2023-02-27T09:59:25.269Z,64.30
2023-02-27T10:04:50.998Z,64.00
2023-02-27T10:10:25.867Z,63.30
2023-02-27T10:15:39.207Z,62.80
2023-02-27T10:21:02.787Z,63.00
2023-02-27T10:26:07.694Z,63.20
2023-02-27T10:31:21.455Z,63.40
2023-02-27T10:36:33.549Z,63.20
2023-02-27T10:41:39.960Z,62.90
2023-02-27T10:46:43.461Z,62.40
2023-02-27T10:52:04.418Z,63.00
2023-02-27T10:57:37.388Z,62.90
2023-02-27T11:02:43.749Z,60.80
2023-02-27T11:07:47.205Z,61.40
2023-02-27T11:13:18.610Z,61.90
2023-02-27T11:18:32.042Z,60.90
2023-02-27T11:23:35.891Z,60.80
2023-02-27T11:28:38.736Z,61.40
2023-02-27T11:33:54.910Z,60.80
2023-02-27T11:38:58.026Z,59.90
2023-02-27T11:44:05.632Z,60.30
2023-02-27T11:49:34.849Z,59.60
2023-02-27T11:54:58.853Z,59.60
2023-02-27T12:00:26.981Z,57.80
2023-02-27T12:05:40.298Z,57.20
2023-02-27T12:11:11.297Z,57.30
2023-02-27T12:16:39.169Z,57.70
2023-02-27T12:21:52.190Z,57.60
2023-02-27T12:27:22.304Z,58.00
2023-02-27T12:32:45.239Z,58.00
2023-02-27T12:37:48.598Z,58.40
2023-02-27T12:43:03.094Z,57.70
2023-02-27T12:48:41.073Z,56.80
2023-02-27T12:53:57.605Z,57.80
2023-02-27T12:59:09.444Z,57.20
2023-02-27T13:04:30.413Z,56.70
2023-02-27T13:10:01.226Z,56.70
2023-02-27T13:15:19.030Z,56.10
2023-02-27T13:20:22.019Z,55.50
2023-02-27T13:25:26.016Z,55.20
2023-02-27T13:30:40.878Z,55.70
2023-02-27T13:36:13.297Z,56.00
2023-02-27T13:41:25.442Z,56.10
2023-02-27T13:46:33.263Z,56.30
2023-02-27T13:51:36.140Z,56.40
2023-02-27T13:56:45.409Z,56.80
2023-02-27T14:01:58.186Z,56.70
2023-02-27T14:07:15.145Z,56.50
2023-02-27T14:12:43.982Z,56.60
2023-02-27T14:17:56.818Z,56.70
2023-02-27T14:23:17.712Z,57.00
2023-02-27T14:28:32.056Z,56.30
2023-02-27T14:33:45.431Z,56.80
2023-02-27T14:38:49.439Z,56.90
2023-02-27T14:43:57.704Z,57.20
2023-02-27T14:49:05.437Z,57.20
2023-02-27T14:54:28.224Z,56.80
2023-02-27T14:59:34.631Z,56.60
2023-02-27T15:04:37.490Z,56.90
2023-02-27T15:09:44.849Z,56.40
2023-02-27T15:14:57.368Z,56.70
2023-02-27T15:20:00.524Z,57.00
2023-02-27T15:25:07.039Z,57.10
2023-02-27T15:30:21.829Z,57.40
2023-02-27T15:35:42.774Z,57.70
2023-02-27T15:40:45.756Z,57.60
2023-02-27T15:45:50.251Z,57.50
2023-02-27T15:51:04.406Z,58.00
2023-02-27T15:56:13.399Z,58.20
2023-02-27T16:01:35.192Z,58.50
2023-02-27T16:06:40.973Z,58.90
2023-02-27T16:11:44.004Z,59.40
2023-02-27T16:16:56.454Z,59.80
2023-02-27T16:22:18.190Z,60.00
2023-02-27T16:27:28.753Z,60.40
2023-02-27T16:32:41.482Z,60.90
2023-02-27T16:37:46.274Z,61.50
2023-02-27T16:42:50.509Z,62.20
2023-02-27T16:47:59.323Z,63.20
2023-02-27T16:53:02.305Z,64.20
2023-02-27T16:58:06.826Z,64.90
2023-02-27T17:03:09.897Z,65.30
2023-02-27T17:08:12.899Z,65.70
2023-02-27T17:13:17.373Z,66.50
2023-02-27T17:18:20.627Z,67.00
2023-02-27T17:23:23.781Z,67.50
2023-02-27T17:28:27.232Z,67.90
2023-02-27T17:33:31.832Z,68.40
2023-02-27T17:38:35.709Z,68.80
2023-02-27T17:43:39.927Z,69.20
2023-02-27T17:48:42.934Z,69.60
2023-02-27T17:53:46.140Z,70.30
2023-02-27T17:58:49.105Z,71.30
2023-02-27T18:03:54.330Z,72.30
2023-02-27T18:08:57.904Z,72.80
2023-02-27T18:14:00.809Z,72.30
2023-02-27T18:19:06.306Z,73.10
2023-02-27T18:24:10.689Z,73.30
2023-02-27T18:29:16.311Z,73.90
2023-02-27T18:34:21.280Z,73.70
2023-02-27T18:39:24.380Z,75.10
2023-02-27T18:44:27.457Z,76.50
2023-02-27T18:49:30.376Z,76.70
2023-02-27T18:54:33.474Z,77.20
2023-02-27T18:59:37.505Z,77.60
2023-02-27T19:04:40.714Z,78.80
2023-02-27T19:09:44.690Z,79.30
2023-02-27T19:14:47.707Z,78.70
2023-02-27T19:19:51.070Z,78.70
2023-02-27T19:24:54.193Z,79.30
2023-02-27T19:29:57.222Z,80.40
2023-02-27T19:35:00.931Z,79.70
2023-02-27T19:40:04.183Z,80.20
2023-02-27T19:45:07.954Z,80.10
2023-02-27T19:50:11.771Z,80.90
2023-02-27T19:55:15.937Z,81.10
2023-02-27T20:00:19.941Z,81.90
2023-02-27T20:05:25.086Z,81.20
2023-02-27T20:10:29.124Z,82.30
2023-02-27T20:15:31.879Z,82.30
2023-02-27T20:20:34.832Z,82.10
2023-02-27T20:25:37.784Z,82.40
2023-02-27T20:30:40.771Z,82.60
2023-02-27T20:35:43.848Z,82.80
2023-02-27T20:40:46.834Z,82.80
2023-02-27T20:45:50.002Z,83.10
2023-02-27T20:50:52.770Z,82.70
2023-02-27T20:55:55.802Z,83.10
2023-02-27T21:00:58.836Z,83.30
2023-02-27T21:06:02.833Z,83.40
2023-02-27T21:11:16.048Z,83.80
2023-02-27T21:16:19.773Z,84.80
2023-02-27T21:21:28.092Z,84.50
2023-02-27T21:26:38.303Z,84.50
2023-02-27T21:31:45.225Z,84.70
2023-02-27T21:36:49.199Z,85.10
2023-02-27T21:41:52.954Z,85.00
2023-02-27T21:46:56.233Z,85.60
2023-02-27T21:51:58.989Z,85.80
2023-02-27T21:57:03.231Z,86.10
2023-02-27T22:02:06.022Z,86.30
2023-02-27T22:07:11.383Z,86.50
2023-02-27T22:12:16.204Z,87.00
2023-02-27T22:17:19.279Z,88.00
2023-02-27T22:22:22.194Z,88.00
2023-02-27T22:27:25.229Z,88.10
2023-02-27T22:32:28.855Z,88.20
2023-02-27T22:37:31.932Z,87.90
2023-02-27T22:42:34.820Z,88.40
2023-02-27T22:47:37.730Z,89.10
2023-02-27T22:52:40.629Z,89.10
2023-02-27T22:57:43.733Z,89.60
2023-02-27T23:02:46.590Z,89.50
2023-02-27T23:07:50.005Z,89.90
2023-02-27T23:12:52.742Z,90.00
2023-02-27T23:17:58.535Z,89.90
2023-02-27T23:23:01.643Z,90.00
2023-02-27T23:28:06.091Z,89.60
2023-02-27T23:33:08.972Z,90.10
2023-02-27T23:38:11.931Z,89.80
2023-02-27T23:43:33.511Z,89.70
2023-02-27T23:48:36.926Z,90.30
2023-02-27T23:53:41.708Z,90.50
2023-02-27T23:58:46.545Z,90.40
